sensor_id;sensor_type;location;lat;lon;timestamp;P1;durP1;ratioP1;P2;durP2;ratioP2
35990;SDS011;22064;42.672;23.282;2023-04-03T00:00:28;5.95;;;3.08;;
35990;SDS011;22064;42.672;23.282;2023-04-03T00:02:55;7.55;;;3.15;;
35990;SDS011;22064;42.672;23.282;2023-04-03T00:05:21;7.47;;;2.80;;
35990;SDS011;22064;42.672;23.282;2023-04-03T00:07:47;7.28;;;2.95;;
35990;SDS011;22064;42.672;23.282;2023-04-03T00:10:15;6.95;;;2.90;;
35990;SDS011;22064;42.672;23.282;2023-04-03T00:12:41;6.63;;;3.00;;
35990;SDS011;22064;42.672;23.282;2023-04-03T00:15:08;6.63;;;3.20;;
35990;SDS011;22064;42.672;23.282;2023-04-03T00:17:34;4.32;;;2.80;;
35990;SDS011;22064;42.672;23.282;2023-04-03T00:20:01;4.68;;;2.90;;
35990;SDS011;22064;42.672;23.282;2023-04-03T00:22:28;4.95;;;2.47;;
35990;SDS011;22064;42.672;23.282;2023-04-03T00:24:54;5.22;;;2.53;;
35990;SDS011;22064;42.672;23.282;2023-04-03T00:27:20;5.57;;;2.55;;
35990;SDS011;22064;42.672;23.282;2023-04-03T00:29:47;4.03;;;2.45;;
35990;SDS011;22064;42.672;23.282;2023-04-03T00:32:13;4.32;;;2.80;;
35990;SDS011;22064;42.672;23.282;2023-04-03T00:34:39;5.60;;;2.80;;
35990;SDS011;22064;42.672;23.282;2023-04-03T00:37:05;5.75;;;3.05;;
35990;SDS011;22064;42.672;23.282;2023-04-03T00:39:31;4.00;;;2.58;;
35990;SDS011;22064;42.672;23.282;2023-04-03T00:41:57;5.82;;;2.72;;
35990;SDS011;22064;42.672;23.282;2023-04-03T00:46:58;4.45;;;2.50;;
35990;SDS011;22064;42.672;23.282;2023-04-03T00:49:24;4.68;;;2.60;;
35990;SDS011;22064;42.672;23.282;2023-04-03T00:51:51;6.93;;;2.80;;
35990;SDS011;22064;42.672;23.282;2023-04-03T00:54:18;6.78;;;2.63;;
35990;SDS011;22064;42.672;23.282;2023-04-03T00:56:44;4.43;;;2.60;;
35990;SDS011;22064;42.672;23.282;2023-04-03T00:59:14;5.45;;;2.67;;
35990;SDS011;22064;42.672;23.282;2023-04-03T01:01:47;4.10;;;2.50;;
35990;SDS011;22064;42.672;23.282;2023-04-03T01:06:57;5.30;;;2.47;;
35990;SDS011;22064;42.672;23.282;2023-04-03T01:09:36;3.63;;;2.47;;
35990;SDS011;22064;42.672;23.282;2023-04-03T01:14:52;5.50;;;2.70;;
35990;SDS011;22064;42.672;23.282;2023-04-03T01:25:31;4.88;;;2.55;;
35990;SDS011;22064;42.672;23.282;2023-04-03T01:27:59;5.30;;;2.53;;
35990;SDS011;22064;42.672;23.282;2023-04-03T01:30:27;4.90;;;2.80;;
35990;SDS011;22064;42.672;23.282;2023-04-03T01:33:00;4.85;;;2.55;;
35990;SDS011;22064;42.672;23.282;2023-04-03T01:35:26;8.77;;;3.38;;
35990;SDS011;22064;42.672;23.282;2023-04-03T01:37:52;8.55;;;3.35;;
35990;SDS011;22064;42.672;23.282;2023-04-03T01:40:19;6.03;;;2.88;;
35990;SDS011;22064;42.672;23.282;2023-04-03T01:42:45;7.70;;;3.10;;
35990;SDS011;22064;42.672;23.282;2023-04-03T01:45:11;9.30;;;3.47;;
35990;SDS011;22064;42.672;23.282;2023-04-03T01:47:37;9.10;;;4.00;;
35990;SDS011;22064;42.672;23.282;2023-04-03T01:50:05;10.23;;;3.97;;
35990;SDS011;22064;42.672;23.282;2023-04-03T01:52:33;6.75;;;3.70;;
35990;SDS011;22064;42.672;23.282;2023-04-03T01:54:59;9.38;;;4.30;;
35990;SDS011;22064;42.672;23.282;2023-04-03T01:57:25;9.82;;;4.30;;
35990;SDS011;22064;42.672;23.282;2023-04-03T01:59:51;9.75;;;4.57;;
35990;SDS011;22064;42.672;23.282;2023-04-03T02:02:17;15.25;;;5.30;;
35990;SDS011;22064;42.672;23.282;2023-04-03T02:04:45;11.82;;;5.15;;
35990;SDS011;22064;42.672;23.282;2023-04-03T02:07:11;14.70;;;5.57;;
35990;SDS011;22064;42.672;23.282;2023-04-03T02:09:37;12.38;;;4.75;;
35990;SDS011;22064;42.672;23.282;2023-04-03T02:12:03;11.52;;;4.72;;
35990;SDS011;22064;42.672;23.282;2023-04-03T02:14:30;9.77;;;4.90;;
35990;SDS011;22064;42.672;23.282;2023-04-03T02:16:56;10.65;;;4.60;;
35990;SDS011;22064;42.672;23.282;2023-04-03T02:19:23;13.20;;;5.45;;
35990;SDS011;22064;42.672;23.282;2023-04-03T02:21:49;9.68;;;4.93;;
35990;SDS011;22064;42.672;23.282;2023-04-03T02:24:15;11.25;;;4.80;;
35990;SDS011;22064;42.672;23.282;2023-04-03T02:26:40;13.15;;;5.40;;
35990;SDS011;22064;42.672;23.282;2023-04-03T02:29:07;13.65;;;5.65;;
35990;SDS011;22064;42.672;23.282;2023-04-03T02:31:34;13.25;;;5.38;;
35990;SDS011;22064;42.672;23.282;2023-04-03T02:34:02;11.45;;;5.38;;
35990;SDS011;22064;42.672;23.282;2023-04-03T02:36:28;13.50;;;5.72;;
35990;SDS011;22064;42.672;23.282;2023-04-03T02:41:23;11.05;;;4.72;;
35990;SDS011;22064;42.672;23.282;2023-04-03T02:43:51;8.60;;;4.65;;
35990;SDS011;22064;42.672;23.282;2023-04-03T02:46:17;9.93;;;4.65;;
35990;SDS011;22064;42.672;23.282;2023-04-03T02:48:43;10.32;;;4.65;;
35990;SDS011;22064;42.672;23.282;2023-04-03T02:51:09;13.18;;;5.43;;
35990;SDS011;22064;42.672;23.282;2023-04-03T02:53:35;11.05;;;4.93;;
35990;SDS011;22064;42.672;23.282;2023-04-03T02:56:08;7.95;;;4.10;;
35990;SDS011;22064;42.672;23.282;2023-04-03T02:58:34;10.30;;;4.65;;
35990;SDS011;22064;42.672;23.282;2023-04-03T03:01:01;10.70;;;5.30;;
35990;SDS011;22064;42.672;23.282;2023-04-03T03:03:28;10.02;;;4.65;;
35990;SDS011;22064;42.672;23.282;2023-04-03T03:06:07;10.02;;;4.53;;
35990;SDS011;22064;42.672;23.282;2023-04-03T03:08:35;12.73;;;4.95;;
35990;SDS011;22064;42.672;23.282;2023-04-03T03:11:02;10.55;;;5.07;;
35990;SDS011;22064;42.672;23.282;2023-04-03T03:13:30;9.82;;;4.63;;
35990;SDS011;22064;42.672;23.282;2023-04-03T03:15:56;11.27;;;5.03;;
35990;SDS011;22064;42.672;23.282;2023-04-03T03:18:23;12.35;;;4.82;;
35990;SDS011;22064;42.672;23.282;2023-04-03T03:20:53;10.38;;;5.35;;
35990;SDS011;22064;42.672;23.282;2023-04-03T03:23:21;10.27;;;4.95;;
35990;SDS011;22064;42.672;23.282;2023-04-03T03:25:49;12.10;;;5.30;;
35990;SDS011;22064;42.672;23.282;2023-04-03T03:28:15;11.60;;;5.75;;
35990;SDS011;22064;42.672;23.282;2023-04-03T03:30:41;11.27;;;5.28;;
35990;SDS011;22064;42.672;23.282;2023-04-03T03:33:07;11.57;;;5.63;;
35990;SDS011;22064;42.672;23.282;2023-04-03T03:35:33;9.93;;;5.45;;
35990;SDS011;22064;42.672;23.282;2023-04-03T03:37:59;14.68;;;6.50;;
35990;SDS011;22064;42.672;23.282;2023-04-03T03:40:25;11.88;;;5.22;;
35990;SDS011;22064;42.672;23.282;2023-04-03T03:42:52;10.35;;;4.40;;
35990;SDS011;22064;42.672;23.282;2023-04-03T03:45:18;8.25;;;3.97;;
35990;SDS011;22064;42.672;23.282;2023-04-03T03:47:44;8.63;;;4.15;;
35990;SDS011;22064;42.672;23.282;2023-04-03T03:50:11;9.75;;;5.05;;
35990;SDS011;22064;42.672;23.282;2023-04-03T03:52:37;11.38;;;4.57;;
35990;SDS011;22064;42.672;23.282;2023-04-03T03:55:04;10.80;;;4.72;;
35990;SDS011;22064;42.672;23.282;2023-04-03T03:57:31;11.15;;;4.93;;
35990;SDS011;22064;42.672;23.282;2023-04-03T03:59:57;9.50;;;5.30;;
35990;SDS011;22064;42.672;23.282;2023-04-03T04:02:23;15.77;;;6.30;;
35990;SDS011;22064;42.672;23.282;2023-04-03T04:04:49;15.00;;;6.50;;
35990;SDS011;22064;42.672;23.282;2023-04-03T04:07:15;9.38;;;4.60;;
35990;SDS011;22064;42.672;23.282;2023-04-03T04:09:42;12.05;;;4.28;;
35990;SDS011;22064;42.672;23.282;2023-04-03T04:12:08;9.52;;;4.28;;
35990;SDS011;22064;42.672;23.282;2023-04-03T04:14:35;10.75;;;4.35;;
35990;SDS011;22064;42.672;23.282;2023-04-03T04:17:01;8.13;;;4.20;;
35990;SDS011;22064;42.672;23.282;2023-04-03T04:19:28;9.85;;;4.55;;
35990;SDS011;22064;42.672;23.282;2023-04-03T04:21:54;11.73;;;4.47;;
35990;SDS011;22064;42.672;23.282;2023-04-03T04:24:20;11.77;;;5.07;;
35990;SDS011;22064;42.672;23.282;2023-04-03T04:26:50;12.13;;;5.40;;
35990;SDS011;22064;42.672;23.282;2023-04-03T04:29:17;14.45;;;5.78;;
35990;SDS011;22064;42.672;23.282;2023-04-03T04:31:47;13.10;;;5.50;;
35990;SDS011;22064;42.672;23.282;2023-04-03T04:34:13;12.93;;;5.70;;
35990;SDS011;22064;42.672;23.282;2023-04-03T04:36:41;13.85;;;6.15;;
35990;SDS011;22064;42.672;23.282;2023-04-03T04:39:07;15.85;;;5.95;;
35990;SDS011;22064;42.672;23.282;2023-04-03T04:41:34;11.82;;;5.35;;
35990;SDS011;22064;42.672;23.282;2023-04-03T04:44:02;13.73;;;5.60;;
35990;SDS011;22064;42.672;23.282;2023-04-03T04:46:29;12.57;;;5.85;;
35990;SDS011;22064;42.672;23.282;2023-04-03T04:48:57;13.60;;;6.43;;
35990;SDS011;22064;42.672;23.282;2023-04-03T04:51:27;15.65;;;7.47;;
35990;SDS011;22064;42.672;23.282;2023-04-03T04:53:53;18.27;;;6.93;;
35990;SDS011;22064;42.672;23.282;2023-04-03T04:56:19;17.63;;;7.53;;
35990;SDS011;22064;42.672;23.282;2023-04-03T04:58:47;18.17;;;7.57;;
35990;SDS011;22064;42.672;23.282;2023-04-03T05:01:15;20.25;;;9.10;;
35990;SDS011;22064;42.672;23.282;2023-04-03T05:03:52;23.70;;;9.80;;
35990;SDS011;22064;42.672;23.282;2023-04-03T05:06:19;24.23;;;11.20;;
35990;SDS011;22064;42.672;23.282;2023-04-03T05:08:46;21.45;;;9.70;;
35990;SDS011;22064;42.672;23.282;2023-04-03T05:11:12;25.58;;;10.27;;
35990;SDS011;22064;42.672;23.282;2023-04-03T05:13:39;21.42;;;10.40;;
35990;SDS011;22064;42.672;23.282;2023-04-03T05:16:05;21.10;;;9.15;;
35990;SDS011;22064;42.672;23.282;2023-04-03T05:18:32;20.88;;;10.15;;
35990;SDS011;22064;42.672;23.282;2023-04-03T05:21:02;21.70;;;9.18;;
35990;SDS011;22064;42.672;23.282;2023-04-03T05:23:28;20.70;;;9.43;;
35990;SDS011;22064;42.672;23.282;2023-04-03T05:25:56;22.15;;;10.43;;
35990;SDS011;22064;42.672;23.282;2023-04-03T05:28:22;25.75;;;10.45;;
35990;SDS011;22064;42.672;23.282;2023-04-03T05:30:58;26.38;;;11.23;;
35990;SDS011;22064;42.672;23.282;2023-04-03T05:33:29;28.58;;;11.82;;
35990;SDS011;22064;42.672;23.282;2023-04-03T05:36:01;29.25;;;12.10;;
35990;SDS011;22064;42.672;23.282;2023-04-03T05:38:30;26.70;;;12.25;;
35990;SDS011;22064;42.672;23.282;2023-04-03T05:40:57;27.48;;;12.43;;
35990;SDS011;22064;42.672;23.282;2023-04-03T05:43:23;31.70;;;13.52;;
35990;SDS011;22064;42.672;23.282;2023-04-03T05:45:50;29.45;;;13.13;;
35990;SDS011;22064;42.672;23.282;2023-04-03T05:48:18;31.77;;;13.97;;
35990;SDS011;22064;42.672;23.282;2023-04-03T05:50:44;47.50;;;21.42;;
35990;SDS011;22064;42.672;23.282;2023-04-03T05:53:21;79.60;;;53.25;;
35990;SDS011;22064;42.672;23.282;2023-04-03T05:55:50;84.55;;;56.47;;
35990;SDS011;22064;42.672;23.282;2023-04-03T05:58:17;80.97;;;54.55;;
35990;SDS011;22064;42.672;23.282;2023-04-03T06:00:45;68.55;;;47.83;;
35990;SDS011;22064;42.672;23.282;2023-04-03T06:03:11;58.03;;;38.38;;
35990;SDS011;22064;42.672;23.282;2023-04-03T06:05:38;51.30;;;31.55;;
35990;SDS011;22064;42.672;23.282;2023-04-03T06:08:04;45.28;;;25.20;;
35990;SDS011;22064;42.672;23.282;2023-04-03T06:10:30;43.40;;;20.67;;
35990;SDS011;22064;42.672;23.282;2023-04-03T06:12:56;35.90;;;17.50;;
35990;SDS011;22064;42.672;23.282;2023-04-03T06:15:22;37.30;;;17.73;;
35990;SDS011;22064;42.672;23.282;2023-04-03T06:17:48;34.20;;;18.55;;
35990;SDS011;22064;42.672;23.282;2023-04-03T06:20:14;35.88;;;18.65;;
35990;SDS011;22064;42.672;23.282;2023-04-03T06:22:40;35.30;;;19.08;;
35990;SDS011;22064;42.672;23.282;2023-04-03T06:25:07;41.58;;;21.80;;
35990;SDS011;22064;42.672;23.282;2023-04-03T06:27:34;42.08;;;22.67;;
35990;SDS011;22064;42.672;23.282;2023-04-03T06:30:00;41.15;;;20.58;;
35990;SDS011;22064;42.672;23.282;2023-04-03T06:32:26;31.60;;;15.93;;
35990;SDS011;22064;42.672;23.282;2023-04-03T06:34:52;28.65;;;13.90;;
35990;SDS011;22064;42.672;23.282;2023-04-03T06:37:20;24.83;;;10.82;;
35990;SDS011;22064;42.672;23.282;2023-04-03T06:39:48;20.38;;;8.32;;
35990;SDS011;22064;42.672;23.282;2023-04-03T06:42:14;15.85;;;7.18;;
35990;SDS011;22064;42.672;23.282;2023-04-03T06:44:51;13.77;;;5.53;;
35990;SDS011;22064;42.672;23.282;2023-04-03T06:47:17;12.77;;;5.97;;
35990;SDS011;22064;42.672;23.282;2023-04-03T06:49:44;13.07;;;5.35;;
35990;SDS011;22064;42.672;23.282;2023-04-03T06:52:10;13.88;;;5.93;;
35990;SDS011;22064;42.672;23.282;2023-04-03T06:54:37;14.18;;;6.07;;
35990;SDS011;22064;42.672;23.282;2023-04-03T06:57:04;13.38;;;5.88;;
35990;SDS011;22064;42.672;23.282;2023-04-03T06:59:30;13.98;;;5.60;;
35990;SDS011;22064;42.672;23.282;2023-04-03T07:01:56;10.80;;;5.20;;
35990;SDS011;22064;42.672;23.282;2023-04-03T07:04:24;12.52;;;5.25;;
35990;SDS011;22064;42.672;23.282;2023-04-03T07:06:50;13.52;;;5.93;;
35990;SDS011;22064;42.672;23.282;2023-04-03T07:09:16;11.07;;;5.60;;
35990;SDS011;22064;42.672;23.282;2023-04-03T07:11:42;15.95;;;6.47;;
35990;SDS011;22064;42.672;23.282;2023-04-03T07:14:08;14.30;;;5.63;;
35990;SDS011;22064;42.672;23.282;2023-04-03T07:16:34;16.88;;;5.60;;
35990;SDS011;22064;42.672;23.282;2023-04-03T07:19:01;12.20;;;4.28;;
35990;SDS011;22064;42.672;23.282;2023-04-03T07:21:28;10.95;;;4.82;;
35990;SDS011;22064;42.672;23.282;2023-04-03T07:23:54;12.38;;;5.28;;
35990;SDS011;22064;42.672;23.282;2023-04-03T07:26:21;13.32;;;5.05;;
35990;SDS011;22064;42.672;23.282;2023-04-03T07:28:48;12.63;;;5.20;;
35990;SDS011;22064;42.672;23.282;2023-04-03T07:31:16;10.40;;;5.07;;
35990;SDS011;22064;42.672;23.282;2023-04-03T07:33:42;10.05;;;5.50;;
35990;SDS011;22064;42.672;23.282;2023-04-03T07:36:10;13.60;;;5.07;;
35990;SDS011;22064;42.672;23.282;2023-04-03T07:38:39;10.40;;;5.35;;
35990;SDS011;22064;42.672;23.282;2023-04-03T07:41:06;15.25;;;5.38;;
35990;SDS011;22064;42.672;23.282;2023-04-03T07:43:32;11.77;;;4.78;;
35990;SDS011;22064;42.672;23.282;2023-04-03T07:45:59;8.88;;;4.57;;
35990;SDS011;22064;42.672;23.282;2023-04-03T07:48:26;10.20;;;4.68;;
35990;SDS011;22064;42.672;23.282;2023-04-03T07:50:52;12.35;;;4.57;;
35990;SDS011;22064;42.672;23.282;2023-04-03T07:53:18;8.27;;;4.60;;
35990;SDS011;22064;42.672;23.282;2023-04-03T07:55:48;11.82;;;5.10;;
35990;SDS011;22064;42.672;23.282;2023-04-03T07:58:17;9.27;;;4.60;;
35990;SDS011;22064;42.672;23.282;2023-04-03T08:00:44;12.07;;;5.10;;
35990;SDS011;22064;42.672;23.282;2023-04-03T08:03:10;12.68;;;4.90;;
35990;SDS011;22064;42.672;23.282;2023-04-03T08:05:38;13.65;;;5.72;;
35990;SDS011;22064;42.672;23.282;2023-04-03T08:08:06;14.25;;;6.20;;
35990;SDS011;22064;42.672;23.282;2023-04-03T08:10:33;12.35;;;7.07;;
35990;SDS011;22064;42.672;23.282;2023-04-03T08:12:59;13.65;;;7.28;;
35990;SDS011;22064;42.672;23.282;2023-04-03T08:15:25;12.13;;;6.65;;
35990;SDS011;22064;42.672;23.282;2023-04-03T08:17:52;18.38;;;8.85;;
35990;SDS011;22064;42.672;23.282;2023-04-03T08:20:18;17.08;;;8.80;;
35990;SDS011;22064;42.672;23.282;2023-04-03T08:22:44;20.52;;;9.35;;
35990;SDS011;22064;42.672;23.282;2023-04-03T08:25:10;19.60;;;9.20;;
35990;SDS011;22064;42.672;23.282;2023-04-03T08:27:36;16.73;;;8.82;;
35990;SDS011;22064;42.672;23.282;2023-04-03T08:30:03;11.77;;;6.90;;
35990;SDS011;22064;42.672;23.282;2023-04-03T08:32:30;15.95;;;6.85;;
35990;SDS011;22064;42.672;23.282;2023-04-03T08:34:55;14.55;;;6.40;;
35990;SDS011;22064;42.672;23.282;2023-04-03T08:37:21;11.50;;;6.15;;
35990;SDS011;22064;42.672;23.282;2023-04-03T08:39:47;16.52;;;7.45;;
35990;SDS011;22064;42.672;23.282;2023-04-03T08:45:05;16.00;;;7.90;;
35990;SDS011;22064;42.672;23.282;2023-04-03T08:47:41;19.55;;;9.38;;
35990;SDS011;22064;42.672;23.282;2023-04-03T08:50:15;19.47;;;9.67;;
35990;SDS011;22064;42.672;23.282;2023-04-03T08:52:51;25.75;;;11.88;;
35990;SDS011;22064;42.672;23.282;2023-04-03T09:00:34;23.27;;;11.38;;
35990;SDS011;22064;42.672;23.282;2023-04-03T09:03:13;25.80;;;12.52;;
35990;SDS011;22064;42.672;23.282;2023-04-03T09:05:43;22.95;;;12.45;;
35990;SDS011;22064;42.672;23.282;2023-04-03T09:08:26;26.40;;;12.85;;
35990;SDS011;22064;42.672;23.282;2023-04-03T09:13:57;28.77;;;14.05;;
35990;SDS011;22064;42.672;23.282;2023-04-03T09:16:43;25.10;;;12.40;;
35990;SDS011;22064;42.672;23.282;2023-04-03T09:19:19;32.45;;;12.95;;
35990;SDS011;22064;42.672;23.282;2023-04-03T09:24:58;25.05;;;13.05;;
35990;SDS011;22064;42.672;23.282;2023-04-03T09:30:13;28.83;;;11.85;;
35990;SDS011;22064;42.672;23.282;2023-04-03T09:32:43;31.02;;;11.48;;
35990;SDS011;22064;42.672;23.282;2023-04-03T09:38:01;17.95;;;9.50;;
35990;SDS011;22064;42.672;23.282;2023-04-03T09:40:41;22.83;;;8.27;;
35990;SDS011;22064;42.672;23.282;2023-04-03T09:46:15;16.80;;;7.03;;
35990;SDS011;22064;42.672;23.282;2023-04-03T09:49:03;12.88;;;6.10;;
35990;SDS011;22064;42.672;23.282;2023-04-03T09:51:32;19.53;;;6.53;;
35990;SDS011;22064;42.672;23.282;2023-04-03T09:53:57;16.17;;;5.60;;
35990;SDS011;22064;42.672;23.282;2023-04-03T10:01:33;12.05;;;5.60;;
35990;SDS011;22064;42.672;23.282;2023-04-03T10:06:50;10.13;;;4.93;;
35990;SDS011;22064;42.672;23.282;2023-04-03T10:09:25;15.48;;;4.70;;
35990;SDS011;22064;42.672;23.282;2023-04-03T10:12:06;9.50;;;4.53;;
35990;SDS011;22064;42.672;23.282;2023-04-03T10:14:39;11.55;;;4.80;;
35990;SDS011;22064;42.672;23.282;2023-04-03T10:17:26;8.40;;;4.57;;
35990;SDS011;22064;42.672;23.282;2023-04-03T10:28:10;11.82;;;4.10;;
35990;SDS011;22064;42.672;23.282;2023-04-03T10:36:11;10.13;;;3.90;;
35990;SDS011;22064;42.672;23.282;2023-04-03T10:41:56;8.93;;;4.15;;
35990;SDS011;22064;42.672;23.282;2023-04-03T10:53:01;6.90;;;3.90;;
35990;SDS011;22064;42.672;23.282;2023-04-03T10:58:50;8.02;;;3.70;;
35990;SDS011;22064;42.672;23.282;2023-04-03T11:01:42;7.70;;;3.85;;
35990;SDS011;22064;42.672;23.282;2023-04-03T11:04:08;8.75;;;4.05;;
35990;SDS011;22064;42.672;23.282;2023-04-03T11:06:44;7.57;;;3.88;;
35990;SDS011;22064;42.672;23.282;2023-04-03T11:09:23;6.88;;;3.67;;
35990;SDS011;22064;42.672;23.282;2023-04-03T11:11:53;6.75;;;3.38;;
35990;SDS011;22064;42.672;23.282;2023-04-03T11:14:26;10.25;;;3.50;;
35990;SDS011;22064;42.672;23.282;2023-04-03T11:17:39;11.02;;;2.95;;
35990;SDS011;22064;42.672;23.282;2023-04-03T11:22:27;6.70;;;3.10;;
35990;SDS011;22064;42.672;23.282;2023-04-03T11:24:59;8.52;;;3.15;;
35990;SDS011;22064;42.672;23.282;2023-04-03T11:27:50;13.27;;;3.88;;
35990;SDS011;22064;42.672;23.282;2023-04-03T11:35:19;6.68;;;3.58;;
35990;SDS011;22064;42.672;23.282;2023-04-03T11:37:55;7.93;;;4.35;;
35990;SDS011;22064;42.672;23.282;2023-04-03T11:43:07;11.20;;;4.57;;
35990;SDS011;22064;42.672;23.282;2023-04-03T11:53:38;7.57;;;4.60;;
35990;SDS011;22064;42.672;23.282;2023-04-03T12:16:21;9.85;;;5.40;;
35990;SDS011;22064;42.672;23.282;2023-04-03T12:21:23;10.93;;;5.68;;
35990;SDS011;22064;42.672;23.282;2023-04-03T12:26:50;8.43;;;5.47;;
35990;SDS011;22064;42.672;23.282;2023-04-03T12:34:38;9.27;;;5.80;;
35990;SDS011;22064;42.672;23.282;2023-04-03T12:45:22;10.77;;;6.25;;
35990;SDS011;22064;42.672;23.282;2023-04-03T12:47:54;12.93;;;6.72;;
35990;SDS011;22064;42.672;23.282;2023-04-03T12:50:27;11.57;;;7.00;;
35990;SDS011;22064;42.672;23.282;2023-04-03T12:52:57;11.10;;;6.68;;
35990;SDS011;22064;42.672;23.282;2023-04-03T12:55:28;12.55;;;6.65;;
35990;SDS011;22064;42.672;23.282;2023-04-03T12:57:54;16.60;;;7.68;;
35990;SDS011;22064;42.672;23.282;2023-04-03T13:02:46;17.38;;;8.15;;
35990;SDS011;22064;42.672;23.282;2023-04-03T13:05:15;18.25;;;8.90;;
35990;SDS011;22064;42.672;23.282;2023-04-03T13:07:43;13.30;;;7.53;;
35990;SDS011;22064;42.672;23.282;2023-04-03T13:10:16;14.05;;;6.97;;
35990;SDS011;22064;42.672;23.282;2023-04-03T13:12:47;13.23;;;7.10;;
35990;SDS011;22064;42.672;23.282;2023-04-03T13:15:23;14.95;;;7.43;;
35990;SDS011;22064;42.672;23.282;2023-04-03T13:17:50;16.15;;;8.10;;
35990;SDS011;22064;42.672;23.282;2023-04-03T13:20:22;15.85;;;7.68;;
35990;SDS011;22064;42.672;23.282;2023-04-03T13:22:51;14.18;;;7.50;;
35990;SDS011;22064;42.672;23.282;2023-04-03T13:25:31;14.13;;;7.57;;
35990;SDS011;22064;42.672;23.282;2023-04-03T13:27:59;14.70;;;7.78;;
35990;SDS011;22064;42.672;23.282;2023-04-03T13:30:35;17.77;;;8.43;;
35990;SDS011;22064;42.672;23.282;2023-04-03T13:33:03;14.95;;;8.82;;
35990;SDS011;22064;42.672;23.282;2023-04-03T13:35:39;18.40;;;8.98;;
35990;SDS011;22064;42.672;23.282;2023-04-03T13:40:57;16.13;;;8.90;;
35990;SDS011;22064;42.672;23.282;2023-04-03T13:56:39;18.27;;;9.70;;
35990;SDS011;22064;42.672;23.282;2023-04-03T14:01:43;17.88;;;9.80;;
35990;SDS011;22064;42.672;23.282;2023-04-03T14:06:44;19.92;;;9.55;;
35990;SDS011;22064;42.672;23.282;2023-04-03T14:09:11;18.23;;;10.25;;
35990;SDS011;22064;42.672;23.282;2023-04-03T14:11:38;18.50;;;10.60;;
35990;SDS011;22064;42.672;23.282;2023-04-03T14:14:11;17.95;;;9.63;;
35990;SDS011;22064;42.672;23.282;2023-04-03T14:16:44;16.33;;;9.18;;
35990;SDS011;22064;42.672;23.282;2023-04-03T14:19:18;15.50;;;9.10;;
35990;SDS011;22064;42.672;23.282;2023-04-03T14:21:58;18.52;;;9.52;;
35990;SDS011;22064;42.672;23.282;2023-04-03T14:24:26;14.90;;;8.98;;
35990;SDS011;22064;42.672;23.282;2023-04-03T14:26:55;17.13;;;9.18;;
35990;SDS011;22064;42.672;23.282;2023-04-03T14:29:22;15.25;;;9.32;;
35990;SDS011;22064;42.672;23.282;2023-04-03T14:31:48;19.42;;;10.45;;
35990;SDS011;22064;42.672;23.282;2023-04-03T14:34:15;16.85;;;9.18;;
35990;SDS011;22064;42.672;23.282;2023-04-03T14:36:43;19.75;;;9.50;;
35990;SDS011;22064;42.672;23.282;2023-04-03T14:39:17;22.48;;;12.68;;
35990;SDS011;22064;42.672;23.282;2023-04-03T14:41:43;23.52;;;12.80;;
35990;SDS011;22064;42.672;23.282;2023-04-03T14:44:10;13.27;;;7.72;;
35990;SDS011;22064;42.672;23.282;2023-04-03T14:46:37;12.27;;;7.20;;
35990;SDS011;22064;42.672;23.282;2023-04-03T14:49:37;12.82;;;6.63;;
35990;SDS011;22064;42.672;23.282;2023-04-03T14:51:57;12.63;;;6.68;;
35990;SDS011;22064;42.672;23.282;2023-04-03T14:54:23;9.88;;;5.88;;
35990;SDS011;22064;42.672;23.282;2023-04-03T14:56:54;10.10;;;6.30;;
35990;SDS011;22064;42.672;23.282;2023-04-03T14:59:22;9.70;;;6.03;;
35990;SDS011;22064;42.672;23.282;2023-04-03T15:01:48;10.55;;;6.15;;
35990;SDS011;22064;42.672;23.282;2023-04-03T15:04:15;10.32;;;6.22;;
35990;SDS011;22064;42.672;23.282;2023-04-03T15:06:43;14.90;;;7.00;;
35990;SDS011;22064;42.672;23.282;2023-04-03T15:09:21;14.55;;;7.50;;
35990;SDS011;22064;42.672;23.282;2023-04-03T15:11:52;11.70;;;6.72;;
35990;SDS011;22064;42.672;23.282;2023-04-03T15:14:20;15.77;;;7.05;;
35990;SDS011;22064;42.672;23.282;2023-04-03T15:16:46;12.73;;;7.50;;
35990;SDS011;22064;42.672;23.282;2023-04-03T15:19:12;11.23;;;6.82;;
35990;SDS011;22064;42.672;23.282;2023-04-03T15:21:38;10.30;;;6.90;;
35990;SDS011;22064;42.672;23.282;2023-04-03T15:24:05;10.85;;;6.35;;
35990;SDS011;22064;42.672;23.282;2023-04-03T15:26:32;12.20;;;6.53;;
35990;SDS011;22064;42.672;23.282;2023-04-03T15:28:58;12.50;;;7.43;;
35990;SDS011;22064;42.672;23.282;2023-04-03T15:31:25;10.10;;;6.55;;
35990;SDS011;22064;42.672;23.282;2023-04-03T15:33:51;39.35;;;18.23;;
35990;SDS011;22064;42.672;23.282;2023-04-03T15:36:17;13.38;;;7.50;;
35990;SDS011;22064;42.672;23.282;2023-04-03T15:38:43;12.82;;;7.40;;
35990;SDS011;22064;42.672;23.282;2023-04-03T15:41:09;12.68;;;7.45;;
35990;SDS011;22064;42.672;23.282;2023-04-03T15:43:35;12.95;;;7.65;;
35990;SDS011;22064;42.672;23.282;2023-04-03T15:46:01;14.77;;;8.25;;
35990;SDS011;22064;42.672;23.282;2023-04-03T15:48:29;16.45;;;8.13;;
35990;SDS011;22064;42.672;23.282;2023-04-03T15:50:55;14.63;;;8.30;;
35990;SDS011;22064;42.672;23.282;2023-04-03T15:53:21;17.35;;;10.00;;
35990;SDS011;22064;42.672;23.282;2023-04-03T15:55:48;18.48;;;10.00;;
35990;SDS011;22064;42.672;23.282;2023-04-03T15:58:14;17.55;;;9.73;;
35990;SDS011;22064;42.672;23.282;2023-04-03T16:00:40;16.20;;;8.85;;
35990;SDS011;22064;42.672;23.282;2023-04-03T16:03:08;16.40;;;9.05;;
35990;SDS011;22064;42.672;23.282;2023-04-03T16:05:41;17.95;;;9.73;;
35990;SDS011;22064;42.672;23.282;2023-04-03T16:08:08;16.65;;;9.80;;
35990;SDS011;22064;42.672;23.282;2023-04-03T16:10:35;17.67;;;10.05;;
35990;SDS011;22064;42.672;23.282;2023-04-03T16:13:02;16.85;;;10.13;;
35990;SDS011;22064;42.672;23.282;2023-04-03T16:15:29;20.38;;;11.15;;
35990;SDS011;22064;42.672;23.282;2023-04-03T16:17:56;17.10;;;10.35;;
35990;SDS011;22064;42.672;23.282;2023-04-03T16:20:23;17.52;;;10.50;;
35990;SDS011;22064;42.672;23.282;2023-04-03T16:22:50;19.08;;;11.43;;
35990;SDS011;22064;42.672;23.282;2023-04-03T16:25:17;20.08;;;11.10;;
35990;SDS011;22064;42.672;23.282;2023-04-03T16:27:43;28.15;;;17.00;;
35990;SDS011;22064;42.672;23.282;2023-04-03T16:30:09;20.52;;;11.40;;
35990;SDS011;22064;42.672;23.282;2023-04-03T16:32:36;21.10;;;11.27;;
35990;SDS011;22064;42.672;23.282;2023-04-03T16:35:04;19.95;;;10.63;;
35990;SDS011;22064;42.672;23.282;2023-04-03T16:37:30;18.85;;;9.20;;
35990;SDS011;22064;42.672;23.282;2023-04-03T16:39:57;16.48;;;8.77;;
35990;SDS011;22064;42.672;23.282;2023-04-03T16:42:24;16.75;;;8.80;;
35990;SDS011;22064;42.672;23.282;2023-04-03T16:44:50;14.93;;;8.13;;
35990;SDS011;22064;42.672;23.282;2023-04-03T16:47:16;12.98;;;7.50;;
35990;SDS011;22064;42.672;23.282;2023-04-03T16:49:44;12.27;;;6.28;;
35990;SDS011;22064;42.672;23.282;2023-04-03T16:52:12;12.15;;;6.20;;
35990;SDS011;22064;42.672;23.282;2023-04-03T16:54:42;12.88;;;6.50;;
35990;SDS011;22064;42.672;23.282;2023-04-03T16:57:08;13.13;;;6.35;;
35990;SDS011;22064;42.672;23.282;2023-04-03T16:59:34;10.35;;;6.25;;
35990;SDS011;22064;42.672;23.282;2023-04-03T17:02:00;10.65;;;5.90;;
35990;SDS011;22064;42.672;23.282;2023-04-03T17:04:26;9.80;;;5.43;;
35990;SDS011;22064;42.672;23.282;2023-04-03T17:06:52;8.98;;;5.57;;